createdAt,value
2024-05-09T00:00:42.711Z,58.72
2024-05-09T00:03:11.048Z,56.95
2024-05-09T00:05:43.946Z,61.95
2024-05-09T00:08:11.838Z,57.20
2024-05-09T00:10:41.025Z,60.90
2024-05-09T00:13:09.611Z,62.63
2024-05-09T00:15:37.538Z,59.08
2024-05-09T00:18:05.853Z,59.30
2024-05-09T00:20:38.872Z,62.92
2024-05-09T00:23:10.735Z,67.00
2024-05-09T00:25:38.614Z,60.28
2024-05-09T00:28:06.097Z,59.65
2024-05-09T00:30:36.159Z,67.82
2024-05-09T00:33:09.145Z,59.72
2024-05-09T00:35:38.671Z,64.25
2024-05-09T00:38:05.879Z,66.32
2024-05-09T00:40:40.678Z,70.80
2024-05-09T00:43:14.447Z,63.28
2024-05-09T00:48:14.240Z,62.50
2024-05-09T00:50:45.304Z,62.55
2024-05-09T00:53:15.553Z,60.70
2024-05-09T00:55:44.159Z,63.05
2024-05-09T00:58:13.126Z,67.05
2024-05-09T01:00:41.689Z,65.63
2024-05-09T01:03:11.644Z,68.38
2024-05-09T01:05:41.476Z,69.13
2024-05-09T01:08:09.653Z,71.65
2024-05-09T01:10:38.360Z,68.85
2024-05-09T01:13:06.273Z,69.20
2024-05-09T01:15:34.554Z,72.93
2024-05-09T01:18:10.591Z,71.03
2024-05-09T01:20:42.480Z,77.85
2024-05-09T01:25:43.039Z,70.45
2024-05-09T01:28:10.071Z,70.65
2024-05-09T01:30:38.239Z,78.03
2024-05-09T01:33:08.478Z,76.15
2024-05-09T01:35:37.963Z,75.90
2024-05-09T01:38:05.331Z,77.97
2024-05-09T01:40:37.823Z,73.72
2024-05-09T01:43:07.770Z,76.35
2024-05-09T01:45:35.306Z,78.55
2024-05-09T01:48:02.946Z,74.85
2024-05-09T01:50:39.189Z,78.00
2024-05-09T01:53:10.348Z,79.13
2024-05-09T01:55:38.236Z,77.10
2024-05-09T01:58:05.289Z,90.28
2024-05-09T02:00:39.408Z,80.57
2024-05-09T02:03:16.605Z,80.30
2024-05-09T02:05:47.227Z,82.35
2024-05-09T02:08:17.026Z,87.93
2024-05-09T02:10:45.595Z,80.25
2024-05-09T02:13:13.463Z,81.05
2024-05-09T02:15:41.008Z,80.57
2024-05-09T02:18:08.887Z,87.00
2024-05-09T02:20:39.218Z,89.75
2024-05-09T02:23:06.957Z,88.72
2024-05-09T02:25:35.014Z,90.95
2024-05-09T02:28:02.039Z,97.72
2024-05-09T02:30:38.744Z,90.22
2024-05-09T02:33:13.210Z,86.15
2024-05-09T02:35:43.745Z,88.10
2024-05-09T02:38:11.487Z,88.15
2024-05-09T02:40:40.191Z,88.75
2024-05-09T02:43:09.944Z,84.93
2024-05-09T02:45:42.008Z,94.38
2024-05-09T02:48:13.223Z,90.50
2024-05-09T02:50:42.039Z,86.63
2024-05-09T02:53:10.656Z,89.75
2024-05-09T02:55:42.539Z,86.07
2024-05-09T02:58:10.625Z,92.60
2024-05-09T03:00:41.598Z,91.70
2024-05-09T03:03:14.663Z,92.85
2024-05-09T03:05:44.776Z,98.50
2024-05-09T03:08:12.416Z,95.57
2024-05-09T03:10:40.032Z,92.43
2024-05-09T03:13:08.674Z,96.15
2024-05-09T03:15:36.080Z,91.38
2024-05-09T03:18:04.253Z,96.85
2024-05-09T03:20:34.824Z,98.10
2024-05-09T03:23:05.601Z,98.67
2024-05-09T03:25:33.575Z,93.43
2024-05-09T03:28:00.702Z,100.35
2024-05-09T03:30:38.735Z,107.85
2024-05-09T03:33:20.621Z,99.53
2024-05-09T03:35:49.506Z,104.03
2024-05-09T03:38:16.830Z,106.63
2024-05-09T03:40:50.312Z,99.22
2024-05-09T03:43:18.667Z,101.93
2024-05-09T03:45:48.908Z,102.15
2024-05-09T03:48:16.214Z,109.03
2024-05-09T03:50:43.644Z,103.43
2024-05-09T03:53:13.090Z,112.60
2024-05-09T03:55:40.445Z,108.00
2024-05-09T03:58:09.242Z,106.38
2024-05-09T04:00:39.396Z,108.88
2024-05-09T04:03:10.187Z,102.93
2024-05-09T04:05:41.452Z,115.07
2024-05-09T04:08:09.913Z,97.35
2024-05-09T04:10:37.735Z,93.60
2024-05-09T04:13:05.364Z,109.25
2024-05-09T04:15:32.571Z,94.47
2024-05-09T04:18:00.983Z,101.30
2024-05-09T04:20:36.519Z,103.03
2024-05-09T04:23:08.680Z,100.47
2024-05-09T04:25:37.268Z,94.35
2024-05-09T04:28:05.544Z,90.68
2024-05-09T04:30:38.145Z,89.38
2024-05-09T04:33:11.185Z,92.00
2024-05-09T04:35:41.830Z,59.23
2024-05-09T04:38:09.729Z,79.93
2024-05-09T04:40:37.702Z,87.43
2024-05-09T04:43:06.699Z,82.68
2024-05-09T04:45:34.068Z,77.70
2024-05-09T04:48:02.300Z,81.70
2024-05-09T04:50:36.149Z,80.55
2024-05-09T04:53:11.517Z,84.90
2024-05-09T04:55:39.139Z,82.47
2024-05-09T04:58:10.495Z,82.28
2024-05-09T05:00:40.162Z,77.57
2024-05-09T05:03:12.960Z,72.72
2024-05-09T05:05:44.054Z,72.20
2024-05-09T05:08:13.197Z,76.55
2024-05-09T05:10:41.886Z,82.25
2024-05-09T05:13:23.710Z,71.15
2024-05-09T05:15:56.771Z,78.68
2024-05-09T05:18:25.965Z,82.93
2024-05-09T05:20:53.906Z,70.70
2024-05-09T05:23:22.256Z,69.05
2024-05-09T05:25:51.546Z,58.40
2024-05-09T05:28:19.046Z,45.70
2024-05-09T05:30:46.343Z,44.42
2024-05-09T05:33:15.268Z,45.03
2024-05-09T05:35:42.965Z,45.20
2024-05-09T05:38:11.037Z,45.10
2024-05-09T05:40:40.044Z,37.63
2024-05-09T05:43:09.727Z,42.72
2024-05-09T05:45:38.233Z,42.17
2024-05-09T05:48:07.027Z,41.58
2024-05-09T05:50:37.509Z,44.60
2024-05-09T05:53:10.196Z,39.65
2024-05-09T05:55:40.084Z,44.28
2024-05-09T05:58:11.080Z,42.70
2024-05-09T06:00:40.520Z,40.90
2024-05-09T06:03:09.606Z,40.60
2024-05-09T06:05:40.723Z,40.58
2024-05-09T06:08:08.369Z,39.78
2024-05-09T06:10:39.372Z,41.13
2024-05-09T06:13:12.090Z,40.67
2024-05-09T06:15:39.887Z,39.22
2024-05-09T06:18:08.764Z,41.78
2024-05-09T06:20:38.021Z,41.47
2024-05-09T06:23:06.990Z,41.58
2024-05-09T06:25:35.176Z,38.03
2024-05-09T06:28:02.978Z,40.40
2024-05-09T06:30:37.458Z,37.28
2024-05-09T06:33:09.758Z,41.83
2024-05-09T06:35:37.959Z,42.42
2024-05-09T06:38:08.630Z,39.97
2024-05-09T06:40:38.620Z,38.78
2024-05-09T06:43:19.025Z,41.15
2024-05-09T06:45:53.007Z,39.15
2024-05-09T06:48:21.024Z,41.65
2024-05-09T06:50:49.460Z,44.42
2024-05-09T06:53:17.648Z,41.35
2024-05-09T06:55:45.332Z,43.05
2024-05-09T06:58:12.474Z,42.58
2024-05-09T07:00:41.664Z,44.72
2024-05-09T07:03:10.823Z,46.13
2024-05-09T07:05:39.806Z,48.65
2024-05-09T07:08:07.284Z,43.20
2024-05-09T07:10:37.977Z,42.72
2024-05-09T07:13:12.865Z,43.80
2024-05-09T07:15:40.600Z,39.90
2024-05-09T07:18:21.397Z,40.63
2024-05-09T07:20:50.162Z,47.33
2024-05-09T07:23:18.087Z,42.85
2024-05-09T07:25:46.160Z,41.35
2024-05-09T07:28:17.973Z,42.22
2024-05-09T07:30:46.154Z,47.72
2024-05-09T07:33:17.735Z,37.80
2024-05-09T07:35:45.969Z,43.72
2024-05-09T07:38:13.470Z,39.13
2024-05-09T07:40:41.954Z,42.63
2024-05-09T07:43:11.654Z,41.35
2024-05-09T07:45:48.687Z,41.55
2024-05-09T07:52:37.525Z,40.95
2024-05-09T07:53:47.127Z,44.67
2024-05-09T07:56:19.898Z,42.65
2024-05-09T07:58:50.694Z,48.90
2024-05-09T08:01:18.727Z,41.88
2024-05-09T08:03:46.143Z,47.80
2024-05-09T08:06:13.662Z,45.20
2024-05-09T08:08:40.544Z,44.08
2024-05-09T08:11:07.762Z,43.05
2024-05-09T08:13:35.310Z,46.13
2024-05-09T08:16:03.270Z,44.88
2024-05-09T08:18:30.548Z,43.72
2024-05-09T08:20:59.029Z,44.63
2024-05-09T08:23:26.009Z,48.33
2024-05-09T08:25:53.200Z,41.45
2024-05-09T08:28:21.088Z,44.20
2024-05-09T08:30:48.723Z,39.60
2024-05-09T08:33:16.254Z,43.28
2024-05-09T08:35:43.260Z,40.92
2024-05-09T08:38:10.846Z,43.22
2024-05-09T08:40:38.421Z,42.15
2024-05-09T08:43:12.039Z,46.75
2024-05-09T08:45:44.123Z,37.97
2024-05-09T08:48:15.630Z,37.90
2024-05-09T08:50:45.166Z,43.33
2024-05-09T08:53:14.924Z,41.92
2024-05-09T08:55:43.943Z,47.58
2024-05-09T08:58:19.674Z,38.50
2024-05-09T09:00:47.642Z,46.70
2024-05-09T09:03:20.051Z,42.70
2024-05-09T09:06:01.350Z,49.97
2024-05-09T09:08:29.278Z,53.95
2024-05-09T09:10:58.885Z,42.22
2024-05-09T09:13:27.928Z,48.47
2024-05-09T09:15:58.239Z,45.30
2024-05-09T09:18:27.323Z,46.67
2024-05-09T09:20:54.896Z,37.80
2024-05-09T09:23:23.099Z,45.95
2024-05-09T09:25:51.930Z,39.47
2024-05-09T09:28:23.296Z,42.28
2024-05-09T09:30:50.364Z,47.90
2024-05-09T09:33:18.847Z,41.90
2024-05-09T09:35:45.918Z,34.15
2024-05-09T09:38:21.771Z,34.60
2024-05-09T09:40:50.702Z,38.60
2024-05-09T09:43:22.788Z,30.52
2024-05-09T09:45:51.186Z,33.08
2024-05-09T09:48:20.663Z,28.35
2024-05-09T09:50:48.736Z,26.30
2024-05-09T09:53:17.079Z,35.20
2024-05-09T09:55:44.234Z,34.88
2024-05-09T09:58:14.775Z,28.33
2024-05-09T10:00:42.254Z,26.77
2024-05-09T10:03:10.237Z,35.15
2024-05-09T10:05:38.476Z,32.65
2024-05-09T10:08:08.483Z,31.42
2024-05-09T10:10:36.367Z,31.20
2024-05-09T10:13:05.429Z,31.02
2024-05-09T10:15:45.780Z,33.60
2024-05-09T10:18:13.550Z,30.25
2024-05-09T10:20:44.604Z,40.88
2024-05-09T10:23:30.086Z,29.83
2024-05-09T10:26:00.954Z,34.38
2024-05-09T10:28:29.347Z,33.03
2024-05-09T10:31:09.767Z,31.48
2024-05-09T10:33:51.875Z,32.90
2024-05-09T10:36:24.255Z,30.33
2024-05-09T10:38:53.239Z,30.40
2024-05-09T10:41:21.246Z,33.83
2024-05-09T10:43:49.169Z,33.28
2024-05-09T10:46:19.409Z,32.38
2024-05-09T10:48:47.677Z,25.65
2024-05-09T10:51:17.111Z,26.85
2024-05-09T10:53:46.109Z,30.17
2024-05-09T10:56:14.574Z,23.33
2024-05-09T10:58:41.807Z,23.35
2024-05-09T11:01:10.480Z,27.85
2024-05-09T11:03:39.030Z,22.42
2024-05-09T11:06:07.609Z,19.83
2024-05-09T11:08:35.675Z,21.58
2024-05-09T11:11:08.092Z,22.40
2024-05-09T11:13:39.980Z,20.45
2024-05-09T11:16:20.186Z,21.92
2024-05-09T11:18:59.010Z,22.35
2024-05-09T11:21:27.077Z,27.50
2024-05-09T11:23:55.007Z,22.55
2024-05-09T11:26:22.513Z,27.05
2024-05-09T11:28:50.486Z,28.95
2024-05-09T11:31:18.826Z,28.58
2024-05-09T11:33:46.624Z,25.08
2024-05-09T11:36:15.183Z,30.17
2024-05-09T11:38:42.583Z,27.42
2024-05-09T11:41:17.725Z,30.17
2024-05-09T11:43:44.621Z,28.10
2024-05-09T11:46:11.988Z,32.05
2024-05-09T11:48:39.841Z,26.85
2024-05-09T11:51:07.648Z,26.10
2024-05-09T11:53:34.563Z,25.98
2024-05-09T11:56:02.441Z,27.80
2024-05-09T11:58:34.163Z,31.60
2024-05-09T12:01:02.420Z,31.40
2024-05-09T12:03:29.730Z,25.73
2024-05-09T12:05:57.599Z,28.02
2024-05-09T12:08:24.576Z,31.08
2024-05-09T12:10:52.304Z,33.10
2024-05-09T12:13:19.542Z,34.78
2024-05-09T12:15:47.663Z,26.10
2024-05-09T12:18:15.107Z,30.83
2024-05-09T12:20:43.068Z,24.13
2024-05-09T12:23:10.691Z,29.63
2024-05-09T12:25:39.740Z,26.27
2024-05-09T12:28:08.775Z,26.83
2024-05-09T12:30:40.017Z,35.03
2024-05-09T12:33:12.412Z,24.27
2024-05-09T12:35:43.508Z,28.38
2024-05-09T12:38:14.097Z,26.17
2024-05-09T12:40:42.394Z,23.10
2024-05-09T12:43:10.843Z,29.38
2024-05-09T12:45:39.866Z,31.80
2024-05-09T12:48:12.537Z,32.55
2024-05-09T12:50:40.656Z,23.98
2024-05-09T12:53:08.390Z,24.20
2024-05-09T12:55:44.045Z,24.23
2024-05-09T12:58:17.719Z,24.88
2024-05-09T13:00:45.899Z,22.60
2024-05-09T13:03:13.400Z,21.23
2024-05-09T13:05:41.943Z,26.73
2024-05-09T13:08:09.611Z,23.63
2024-05-09T13:10:36.918Z,25.67
2024-05-09T13:13:05.005Z,22.63
2024-05-09T13:15:34.594Z,23.05
2024-05-09T13:18:03.714Z,21.88
2024-05-09T13:20:34.141Z,22.95
2024-05-09T13:23:05.420Z,25.70
2024-05-09T13:25:34.716Z,26.50
2024-05-09T13:28:06.572Z,20.58
2024-05-09T13:30:39.401Z,21.20
2024-05-09T13:33:11.560Z,23.65
2024-05-09T13:35:45.482Z,23.95
2024-05-09T13:38:16.750Z,20.58
2024-05-09T13:40:44.633Z,21.55
2024-05-09T13:43:11.889Z,23.88
2024-05-09T13:45:40.181Z,23.20
2024-05-09T13:48:09.560Z,23.75
2024-05-09T13:50:37.478Z,20.40
2024-05-09T13:53:06.725Z,23.15
2024-05-09T13:55:37.910Z,23.40
2024-05-09T13:58:05.334Z,21.95
2024-05-09T14:00:43.846Z,20.98
2024-05-09T14:03:16.637Z,15.85
2024-05-09T14:05:46.200Z,19.23
2024-05-09T14:08:15.414Z,21.85
2024-05-09T14:10:45.198Z,19.20
2024-05-09T14:13:13.427Z,19.83
2024-05-09T14:15:41.398Z,14.93
2024-05-09T14:18:12.702Z,17.15
2024-05-09T14:20:41.333Z,18.88
2024-05-09T14:23:09.188Z,18.65
2024-05-09T14:25:39.975Z,17.67
2024-05-09T14:28:10.172Z,20.00
2024-05-09T14:30:38.588Z,18.13
2024-05-09T14:33:08.231Z,20.83
2024-05-09T14:35:37.464Z,18.75
2024-05-09T14:38:06.378Z,19.05
2024-05-09T14:43:04.271Z,17.95
2024-05-09T14:45:32.180Z,19.02
2024-05-09T14:47:59.698Z,23.13
2024-05-09T14:50:34.711Z,17.13
2024-05-09T14:53:15.274Z,18.70
2024-05-09T14:55:43.501Z,20.05
2024-05-09T14:58:12.581Z,15.65
2024-05-09T15:00:46.009Z,18.05
2024-05-09T15:03:21.706Z,14.45
2024-05-09T15:05:50.099Z,17.25
2024-05-09T15:08:18.932Z,16.73
2024-05-09T15:10:46.388Z,13.70
2024-05-09T15:13:16.483Z,21.02
2024-05-09T15:15:44.354Z,14.20
2024-05-09T15:18:12.180Z,15.95
2024-05-09T15:20:40.378Z,14.90
2024-05-09T15:23:08.054Z,15.48
2024-05-09T15:25:36.270Z,14.07
2024-05-09T15:28:05.302Z,12.45
2024-05-09T15:30:33.891Z,19.15
2024-05-09T15:33:06.834Z,14.68
2024-05-09T15:38:05.372Z,18.00
2024-05-09T15:40:38.965Z,17.05
2024-05-09T15:43:10.237Z,14.43
2024-05-09T15:45:39.114Z,13.23
2024-05-09T15:48:08.239Z,17.83
2024-05-09T15:50:39.577Z,17.02
2024-05-09T15:53:10.258Z,13.45
2024-05-09T15:55:38.198Z,16.48
2024-05-09T15:58:07.094Z,14.77
2024-05-09T16:00:39.193Z,18.52
2024-05-09T16:03:10.664Z,14.15
2024-05-09T16:05:38.367Z,12.88
2024-05-09T16:08:07.206Z,14.30
2024-05-09T16:10:35.469Z,12.65
2024-05-09T16:13:03.701Z,15.35
2024-05-09T16:15:32.183Z,13.60
2024-05-09T16:18:00.190Z,12.60
2024-05-09T16:20:37.890Z,14.70
2024-05-09T16:23:08.772Z,10.88
2024-05-09T16:25:37.305Z,11.48
2024-05-09T16:28:08.672Z,15.65
2024-05-09T16:30:41.312Z,14.90
2024-05-09T16:33:09.412Z,11.75
2024-05-09T16:35:37.892Z,12.32
2024-05-09T16:38:05.863Z,13.10
2024-05-09T16:40:38.233Z,18.50
2024-05-09T16:43:09.218Z,13.35
2024-05-09T16:45:38.038Z,12.40
2024-05-09T16:48:06.756Z,13.35
2024-05-09T16:50:35.532Z,12.43
2024-05-09T16:53:05.391Z,13.38
2024-05-09T16:55:33.424Z,16.58
2024-05-09T16:58:01.032Z,12.05
2024-05-09T17:00:39.328Z,18.00
2024-05-09T17:03:12.920Z,16.60
2024-05-09T17:05:41.403Z,15.88
2024-05-09T17:08:09.196Z,12.57
2024-05-09T17:10:36.835Z,13.60
2024-05-09T17:13:06.863Z,12.80
2024-05-09T17:15:36.074Z,15.07
2024-05-09T17:18:05.209Z,14.43
2024-05-09T17:20:36.003Z,14.23
2024-05-09T17:23:06.326Z,19.70
2024-05-09T17:25:33.752Z,14.18
2024-05-09T17:28:07.473Z,17.00
2024-05-09T17:30:37.951Z,16.02
2024-05-09T17:33:09.521Z,16.83
2024-05-09T17:35:37.681Z,17.48
2024-05-09T17:38:06.001Z,21.55
2024-05-09T17:40:36.468Z,15.05
2024-05-09T17:43:06.629Z,16.90
2024-05-09T17:45:40.196Z,17.27
2024-05-09T17:48:10.783Z,17.45
2024-05-09T17:50:39.122Z,20.90
2024-05-09T17:53:07.005Z,17.38
2024-05-09T17:55:34.800Z,17.30
2024-05-09T17:58:02.578Z,18.88
2024-05-09T18:00:37.541Z,23.55
2024-05-09T18:03:12.089Z,19.50
2024-05-09T18:05:40.821Z,23.13
2024-05-09T18:08:08.929Z,27.83
2024-05-09T18:10:38.827Z,27.60
2024-05-09T18:13:12.382Z,31.25
2024-05-09T18:15:39.813Z,27.45
2024-05-09T18:18:08.120Z,27.10
2024-05-09T18:20:42.671Z,34.50
2024-05-09T18:23:16.050Z,33.65
2024-05-09T18:25:44.727Z,37.13
2024-05-09T18:28:11.662Z,32.35
2024-05-09T18:30:40.156Z,39.30
2024-05-09T18:33:10.626Z,36.42
2024-05-09T18:35:38.601Z,35.83
2024-05-09T18:38:05.987Z,35.47
2024-05-09T18:40:36.362Z,35.45
2024-05-09T18:43:07.361Z,32.97
2024-05-09T18:45:37.087Z,34.13
2024-05-09T18:48:05.606Z,37.63
2024-05-09T18:50:37.518Z,32.97
2024-05-09T18:53:07.631Z,32.65
2024-05-09T18:55:34.812Z,30.13
2024-05-09T18:58:01.781Z,34.78
2024-05-09T19:00:34.788Z,35.17
2024-05-09T19:03:09.411Z,30.33
2024-05-09T19:05:38.873Z,35.70
2024-05-09T19:08:07.429Z,35.58
2024-05-09T19:10:36.074Z,37.08
2024-05-09T19:13:09.296Z,34.20
2024-05-09T19:15:40.272Z,36.08
2024-05-09T19:18:08.030Z,35.22
2024-05-09T19:20:36.707Z,34.72
2024-05-09T19:23:06.034Z,33.35
2024-05-09T19:25:33.622Z,35.65
2024-05-09T19:28:01.203Z,32.10
2024-05-09T19:30:37.141Z,36.15
2024-05-09T19:33:09.454Z,31.55
2024-05-09T19:35:37.235Z,33.33
2024-05-09T19:38:04.881Z,31.50
2024-05-09T19:40:33.972Z,39.80
2024-05-09T19:43:03.113Z,34.63
2024-05-09T19:45:32.157Z,35.65
2024-05-09T19:47:59.397Z,33.90
2024-05-09T19:50:35.684Z,32.95
2024-05-09T19:53:08.831Z,34.03
2024-05-09T19:55:35.784Z,31.20
2024-05-09T19:58:05.445Z,30.55
2024-05-09T20:00:39.950Z,33.63
2024-05-09T20:03:10.433Z,32.65
2024-05-09T20:05:38.463Z,30.90
2024-05-09T20:08:06.533Z,32.72
2024-05-09T20:10:35.798Z,34.45
2024-05-09T20:13:06.927Z,37.97
2024-05-09T20:15:36.213Z,35.50
2024-05-09T20:18:04.765Z,31.10
2024-05-09T20:20:38.225Z,33.50
2024-05-09T20:23:10.098Z,32.90
2024-05-09T20:25:37.472Z,35.15
2024-05-09T20:28:06.105Z,30.67
2024-05-09T20:30:34.738Z,30.90
2024-05-09T20:33:04.923Z,30.27
2024-05-09T20:35:33.435Z,29.17
2024-05-09T20:38:01.161Z,30.88
2024-05-09T20:40:33.055Z,31.27
2024-05-09T20:43:04.325Z,29.33
2024-05-09T20:45:31.387Z,30.83
2024-05-09T20:47:58.457Z,33.95
2024-05-09T20:50:35.734Z,29.25
2024-05-09T20:53:15.259Z,31.70
2024-05-09T20:55:44.169Z,30.85
2024-05-09T20:58:12.723Z,30.08
2024-05-09T21:00:43.274Z,30.52
2024-05-09T21:03:15.204Z,32.45
2024-05-09T21:05:43.535Z,33.45
2024-05-09T21:08:11.275Z,28.45
2024-05-09T21:10:38.792Z,30.48
2024-05-09T21:13:07.000Z,35.58
2024-05-09T21:15:36.014Z,35.10
2024-05-09T21:18:03.617Z,30.52
2024-05-09T21:20:33.563Z,31.77
2024-05-09T21:23:03.844Z,29.88
2024-05-09T21:25:31.908Z,33.65
2024-05-09T21:27:59.187Z,34.38
2024-05-09T21:30:33.169Z,33.53
2024-05-09T21:33:10.103Z,35.63
2024-05-09T21:35:39.048Z,34.00
2024-05-09T21:38:06.985Z,39.38
2024-05-09T21:40:36.230Z,33.03
2024-05-09T21:43:05.253Z,34.38
2024-05-09T21:45:33.787Z,32.63
2024-05-09T21:48:02.962Z,36.90
2024-05-09T21:50:37.062Z,38.10
2024-05-09T21:53:08.399Z,36.78
2024-05-09T21:55:35.718Z,33.25
2024-05-09T21:58:03.232Z,33.47
2024-05-09T22:00:36.594Z,33.35
2024-05-09T22:03:10.787Z,33.05
2024-05-09T22:05:42.347Z,39.47
2024-05-09T22:08:09.616Z,35.90
2024-05-09T22:10:37.628Z,38.97
2024-05-09T22:13:06.482Z,36.88
2024-05-09T22:15:39.609Z,33.03
2024-05-09T22:18:08.635Z,37.33
2024-05-09T22:20:39.317Z,32.58
2024-05-09T22:23:07.825Z,35.97
2024-05-09T22:25:35.687Z,32.47
2024-05-09T22:28:03.783Z,32.35
2024-05-09T22:30:36.058Z,35.90
2024-05-09T22:33:11.034Z,35.67
2024-05-09T22:35:40.753Z,38.63
2024-05-09T22:38:08.072Z,38.22
2024-05-09T22:43:06.396Z,38.83
2024-05-09T22:45:33.853Z,37.45
2024-05-09T22:48:01.420Z,37.58
2024-05-09T22:50:33.115Z,41.35
2024-05-09T22:53:01.418Z,41.85
2024-05-09T22:55:28.563Z,41.35
2024-05-09T22:57:56.415Z,40.05
2024-05-09T23:00:31.337Z,40.20
2024-05-09T23:03:01.720Z,42.67
2024-05-09T23:05:29.263Z,42.40
2024-05-09T23:07:57.630Z,40.88
2024-05-09T23:10:31.664Z,41.78
2024-05-09T23:13:04.048Z,42.20
2024-05-09T23:15:31.289Z,40.90
2024-05-09T23:17:59.275Z,44.53
2024-05-09T23:20:33.822Z,47.17
2024-05-09T23:23:06.915Z,53.28
2024-05-09T23:25:34.612Z,49.38
2024-05-09T23:28:01.755Z,46.67
2024-05-09T23:30:36.960Z,46.03
2024-05-09T23:33:08.428Z,53.25
2024-05-09T23:35:36.082Z,51.30
2024-05-09T23:38:03.295Z,48.88
2024-05-09T23:40:37.992Z,50.28
2024-05-09T23:43:09.312Z,51.72
2024-05-09T23:45:37.201Z,55.83
2024-05-09T23:48:05.023Z,54.85
2024-05-09T23:50:36.124Z,57.97
2024-05-09T23:53:07.745Z,55.00
2024-05-09T23:55:35.862Z,51.80
2024-05-09T23:58:03.175Z,56.85
